Time;durP1;ratioP1;P1;durP2;ratioP2;P2;SDS_P1;SDS_P2;PMS_P1;PMS_P2;Temp;Humidity;BMP_temperature;BMP_pressure;BME280_temperature;BME280_humidity;BME280_pressure;Samples;Min_cycle;Max_cycle;Signal;HPM_P1;HPM_P2
2022/01/30 00:00:20;;;;;;;;;;;;;;;13.76;57.41;102293.56;1046506;28;1676;-68
2022/01/30 00:01:11;;;;;;;;;;;;;;;13.74;57.08;102307.03;1048984;28;1537;-69
2022/01/30 00:02:01;;;;;;;;;;;;;;;13.75;56.92;102314.13;1049237;28;1566;-69
2022/01/30 00:02:52;;;;;;;;;;;;;;;13.75;57.42;102306.09;1048327;28;1452;-69
2022/01/30 00:03:42;;;;;;;;;;;;;;;13.75;56.59;102313.25;1047473;28;1444;-69
2022/01/30 00:04:32;;;;;;;;;;;;;;;13.75;57.11;102314.13;1047862;28;1567;-69
2022/01/30 00:05:23;;;;;;;;;;;;;;;13.75;57.09;102308.78;1047278;28;1568;-69
2022/01/30 00:06:13;;;;;;;;;;;;;;;13.75;56.75;102313.25;1049784;28;1392;-68
2022/01/30 00:07:04;;;;;;;;;;;;;;;13.75;56.89;102315.94;1049955;28;1458;-68
2022/01/30 00:07:54;;;;;;;;;;;;;;;13.74;56.93;102312.38;1049776;28;1727;-68
2022/01/30 00:08:44;;;;;;;;;;;;;;;13.75;56.86;102310.59;1047584;28;1965;-69
2022/01/30 00:09:35;;;;;;;;;;;;;;;13.75;56.81;102318.63;1048758;28;609;-69
2022/01/30 00:10:25;;;;;;;;;;;;;;;13.74;57.04;102312.38;1049409;28;692;-69
2022/01/30 00:11:23;;;;;;;;;;;;;;;13.74;57.06;102309.72;1049608;28;775;-69
2022/01/30 00:12:16;;;;;;;;;;;;;;;13.73;56.79;102312.47;1050296;28;796;-70
2022/01/30 00:13:09;;;;;;;;;;;;;;;13.73;56.67;102307.97;1050094;28;840;-70
2022/01/30 00:14:01;;;;;;;;;;;;;;;13.73;56.54;102309.78;1050198;28;833;-69
2022/01/30 00:14:55;;;;;;;;;;;;;;;13.72;56.98;102308.94;1050276;28;823;-71
2022/01/30 00:15:51;;;;;;;;;;;;;;;13.70;56.49;102301.91;1047089;28;609;-70
2022/01/30 00:16:42;;;;;;;;;;;;;;;13.71;56.69;102314.38;1046499;28;625;-70
2022/01/30 00:17:39;;;;;;;;;;;;;;;13.71;57.13;102317.03;1046050;28;649;-70
2022/01/30 00:19:59;;;;;;;;;;;;;;;13.71;56.55;102306.34;1046417;28;789;-68
2022/01/30 00:20:47;;;;;;;;;;;;;;;13.72;56.20;102324.13;1045857;28;696;-68
2022/01/30 00:21:43;;;;;;;;;;;;;;;13.72;57.32;102325.00;1046442;28;1197;-67
2022/01/30 00:23:26;;;;;;;;;;;;;;;13.70;57.20;102321.53;1047126;28;767;-67
2022/01/30 00:24:28;;;;;;;;;;;;;;;13.70;57.08;102321.53;1046052;28;721;-67
2022/01/30 00:25:29;;;;;;;;;;;;;;;13.71;56.60;102333.13;1045874;28;759;-67
2022/01/30 00:26:20;;;;;;;;;;;;;;;13.71;56.97;102327.75;1046120;28;676;-67
2022/01/30 00:27:17;;;;;;;;;;;;;;;13.71;56.31;102325.09;1045945;28;685;-66
2022/01/30 00:28:11;;;;;;;;;;;;;;;13.70;57.11;102313.50;1045957;28;774;-66
2022/01/30 00:29:01;;;;;;;;;;;;;;;13.69;56.42;102325.16;1052919;28;1906;-67
2022/01/30 00:29:52;;;;;;;;;;;;;;;13.68;57.32;102322.56;1054117;28;877;-65
2022/01/30 00:30:42;;;;;;;;;;;;;;;13.68;56.74;102327.94;1054419;28;704;-65
2022/01/30 00:31:34;;;;;;;;;;;;;;;13.67;56.96;102323.50;1054212;28;1015;-65
2022/01/30 00:32:24;;;;;;;;;;;;;;;13.68;56.91;102327.94;1054374;28;697;-65
2022/01/30 00:33:15;;;;;;;;;;;;;;;13.68;56.79;102327.94;1050529;28;1683;-65
2022/01/30 00:34:05;;;;;;;;;;;;;;;13.68;56.64;102335.97;1049442;28;930;-68
2022/01/30 00:34:56;;;;;;;;;;;;;;;13.67;57.09;102316.34;1049316;28;1886;-68
2022/01/30 00:35:46;;;;;;;;;;;;;;;13.67;56.00;102335.09;1049489;28;943;-68
2022/01/30 00:36:37;;;;;;;;;;;;;;;13.67;57.14;102332.41;1049379;28;787;-67
2022/01/30 00:37:27;;;;;;;;;;;;;;;13.67;56.24;102334.22;1049503;28;558;-67
2022/01/30 00:38:22;;;;;;;;;;;;;;;13.66;56.83;102329.81;1049543;28;873;-67
2022/01/30 00:39:12;;;;;;;;;;;;;;;13.65;56.26;102328.09;1051188;28;719;-67
2022/01/30 00:40:03;;;;;;;;;;;;;;;13.64;56.29;102332.56;1044833;28;786;-68
2022/01/30 00:40:53;;;;;;;;;;;;;;;13.64;55.96;102329.91;1046302;28;721;-67
2022/01/30 00:41:44;;;;;;;;;;;;;;;13.65;56.20;102330.75;1050600;28;716;-67
2022/01/30 00:42:34;;;;;;;;;;;;;;;13.65;56.27;102342.34;1049379;28;783;-67
2022/01/30 00:43:24;;;;;;;;;;;;;;;13.64;56.98;102327.22;1049401;28;1643;-67
2022/01/30 00:44:15;;;;;;;;;;;;;;;13.63;56.75;102330.84;1050536;28;802;-66
2022/01/30 00:45:05;;;;;;;;;;;;;;;13.62;57.21;102328.25;1050657;28;731;-67
2022/01/30 00:45:56;;;;;;;;;;;;;;;13.62;55.94;102318.41;1050576;28;731;-68
2022/01/30 00:46:46;;;;;;;;;;;;;;;13.62;56.98;102333.59;1050593;28;781;-68
2022/01/30 00:47:36;;;;;;;;;;;;;;;13.63;56.77;102329.97;1050591;28;787;-68
2022/01/30 00:48:27;;;;;;;;;;;;;;;13.61;56.38;102327.41;1050358;28;1138;-67
2022/01/30 00:49:17;;;;;;;;;;;;;;;13.61;56.70;102331.91;1050604;28;712;-67
2022/01/30 00:50:08;;;;;;;;;;;;;;;13.62;57.05;102328.25;1050647;28;780;-67
2022/01/30 00:50:58;;;;;;;;;;;;;;;13.61;55.98;102321.19;1050494;28;695;-67
2022/01/30 00:51:48;;;;;;;;;;;;;;;13.61;55.92;102315.84;1050602;28;701;-67
2022/01/30 00:52:39;;;;;;;;;;;;;;;13.61;56.62;102326.53;1050269;28;1707;-67
2022/01/30 00:53:29;;;;;;;;;;;;;;;13.62;56.83;102323.75;1049567;28;649;-67
2022/01/30 00:54:20;;;;;;;;;;;;;;;13.62;56.69;102320.22;1049358;28;602;-68
2022/01/30 00:55:10;;;;;;;;;;;;;;;13.61;56.81;102321.19;1049460;28;779;-67
2022/01/30 00:56:01;;;;;;;;;;;;;;;13.60;56.03;102327.50;1049512;28;773;-66
2022/01/30 00:56:51;;;;;;;;;;;;;;;13.61;56.25;102331.91;1049261;28;792;-67
2022/01/30 00:57:42;;;;;;;;;;;;;;;13.60;56.43;102327.50;1049458;28;716;-67
2022/01/30 00:58:32;;;;;;;;;;;;;;;13.62;56.75;102325.56;1044846;28;1033;-67
2022/01/30 00:59:22;;;;;;;;;;;;;;;13.60;56.65;102322.13;1046121;28;653;-67
2022/01/30 01:00:14;;;;;;;;;;;;;;;13.61;56.63;102329.22;1050495;28;802;-67
2022/01/30 01:01:04;;;;;;;;;;;;;;;13.59;56.18;102323.94;1050404;28;873;-67
2022/01/30 01:01:55;;;;;;;;;;;;;;;13.61;56.41;102331.91;1049314;28;744;-67
2022/01/30 01:02:45;;;;;;;;;;;;;;;13.60;55.82;102324.81;1049274;28;1907;-67
2022/01/30 01:03:36;;;;;;;;;;;;;;;13.60;56.76;102331.03;1050515;28;621;-67
2022/01/30 01:04:26;;;;;;;;;;;;;;;13.60;56.07;102330.16;1050597;28;639;-69
2022/01/30 01:05:17;;;;;;;;;;;;;;;13.61;56.14;102324.72;1050472;28;769;-71
2022/01/30 01:06:07;;;;;;;;;;;;;;;13.61;55.96;102334.59;1050506;28;785;-69
2022/01/30 01:06:57;;;;;;;;;;;;;;;13.60;56.83;102320.31;1050570;28;1095;-70
2022/01/30 01:07:50;;;;;;;;;;;;;;;13.61;56.06;102331.91;1050361;28;705;-69
2022/01/30 01:09:15;;;;;;;;;;;;;;;13.60;56.98;102335.53;1049792;28;2009;-69
2022/01/30 01:10:06;;;;;;;;;;;;;;;13.59;56.42;102333.78;1049932;28;724;-70
2022/01/30 01:12:51;;;;;;;;;;;;;;;13.60;56.12;102340.88;1042500;28;720;-70
2022/01/30 08:46:34;;;;;;;;;;;;;;;14.34;52.96;102638.88;1247387;23;1374;31
2022/01/30 08:47:24;;;;;;;;;;;;;;;14.34;53.15;102646.94;1019467;29;1361;-61
2022/01/30 08:48:14;;;;;;;;;;;;;;;14.35;52.95;102646.00;1018008;29;2104;-61
2022/01/30 08:49:02;;;;;;;;;;;;;;;14.35;52.89;102640.63;1027451;23;1991;-62
2022/01/30 08:49:51;;;;;;;;;;;;;;;14.34;53.03;102644.25;1017279;29;1906;-62
2022/01/30 08:50:40;;;;;;;;;;;;;;;14.35;52.99;102648.66;1016468;29;1487;-62
2022/01/30 08:51:29;;;;;;;;;;;;;;;14.33;53.30;102639.88;1013891;29;1362;-62
2022/01/30 08:52:19;;;;;;;;;;;;;;;14.33;53.71;102645.22;1014711;29;1523;-62
2022/01/30 08:53:07;;;;;;;;;;;;;;;14.32;53.04;102649.72;1017166;29;1399;-62
2022/01/30 08:53:56;;;;;;;;;;;;;;;14.32;53.52;102652.41;1017640;29;1648;-61
2022/01/30 08:54:46;;;;;;;;;;;;;;;14.31;53.33;102655.16;1017308;29;1820;-62
2022/01/30 08:55:34;;;;;;;;;;;;;;;14.31;53.27;102641.75;1015960;29;2486;-63
2022/01/30 08:56:23;;;;;;;;;;;;;;;14.31;53.85;102649.81;1016479;29;1611;-63
2022/01/30 08:57:12;;;;;;;;;;;;;;;14.31;53.46;102656.03;1018035;29;1548;-62
2022/01/30 08:58:07;;;;;;;;;;;;;;;14.30;53.41;102645.38;1017544;29;1361;-62
2022/01/30 08:58:57;;;;;;;;;;;;;;;14.29;53.36;102652.56;1016602;29;1383;-62
2022/01/30 08:59:46;;;;;;;;;;;;;;;14.29;53.31;102649.00;1011474;29;1357;-62
2022/01/30 09:00:35;;;;;;;;;;;;;;;14.29;53.91;102651.69;1015321;29;1321;-62
2022/01/30 09:01:24;;;;;;;;;;;;;;;14.28;53.87;102655.31;1017864;29;1421;-62
2022/01/30 09:02:13;;;;;;;;;;;;;;;14.29;53.83;102657.06;1016637;29;1432;-62
2022/01/30 09:03:03;;;;;;;;;;;;;;;14.30;53.74;102658.78;1015896;29;1444;-62
2022/01/30 09:03:51;;;;;;;;;;;;;;;14.31;53.88;102657.84;1018088;29;747;-62
2022/01/30 09:04:41;;;;;;;;;;;;;;;14.32;53.87;102659.59;1018338;29;677;-61
2022/01/30 09:05:30;;;;;;;;;;;;;;;14.33;53.07;102655.97;1018343;29;722;-62
2022/01/30 09:06:19;;;;;;;;;;;;;;;14.33;53.29;102664.00;1018311;29;859;-61
2022/01/30 09:07:07;;;;;;;;;;;;;;;14.33;53.67;102655.97;1018306;29;1238;-62
2022/01/30 09:07:56;;;;;;;;;;;;;;;14.33;53.46;102659.47;1018330;29;757;-62
2022/01/30 09:08:45;;;;;;;;;;;;;;;14.33;53.02;102664.84;1018238;29;730;-61
2022/01/30 09:09:34;;;;;;;;;;;;;;;14.34;53.20;102663.91;1018315;29;661;-62
2022/01/30 09:10:23;;;;;;;;;;;;;;;14.34;53.65;102660.34;1016691;29;1659;-61
2022/01/30 09:11:12;;;;;;;;;;;;;;;14.35;53.26;102660.28;1018391;29;768;-62
2022/01/30 09:12:03;;;;;;;;;;;;;;;14.35;52.81;102652.22;1018288;29;752;-61
2022/01/30 09:12:51;;;;;;;;;;;;;;;14.36;53.71;102661.13;1014305;29;662;-62
2022/01/30 09:13:40;;;;;;;;;;;;;;;14.38;52.98;102661.94;1018127;29;606;-62
2022/01/30 09:14:30;;;;;;;;;;;;;;;14.38;53.04;102662.78;1018162;29;970;-62
2022/01/30 09:15:18;;;;;;;;;;;;;;;14.40;53.18;102665.41;1018189;29;819;-61
2022/01/30 09:16:07;;;;;;;;;;;;;;;14.40;53.24;102662.72;1018172;29;776;-62
2022/01/30 09:16:56;;;;;;;;;;;;;;;14.41;52.93;102667.16;1018046;29;1852;-62
2022/01/30 09:17:45;;;;;;;;;;;;;;;14.41;53.74;102662.69;1014396;29;630;-61
2022/01/30 09:18:37;;;;;;;;;;;;;;;14.42;53.50;102671.59;1017598;29;987;-62
2022/01/30 09:19:26;;;;;;;;;;;;;;;14.43;53.28;102662.59;1017118;29;1775;-62
2022/01/30 09:20:15;;;;;;;;;;;;;;;14.44;53.58;102661.66;1017012;29;1522;-62
2022/01/30 09:21:04;;;;;;;;;;;;;;;14.45;52.99;102666.94;1018204;29;871;-62
2022/01/30 09:21:53;;;;;;;;;;;;;;;14.45;53.46;102666.94;1018238;29;761;-61
2022/01/30 09:22:42;;;;;;;;;;;;;;;14.46;52.79;102670.50;1018020;29;1544;-62
2022/01/30 09:23:31;;;;;;;;;;;;;;;14.44;53.36;102669.69;1017833;29;1545;-61
2022/01/30 09:24:20;;;;;;;;;;;;;;;14.45;53.41;102664.25;1018223;29;888;-62
2022/01/30 09:25:09;;;;;;;;;;;;;;;14.44;53.40;102670.56;1018004;29;1574;-62
2022/01/30 09:25:58;;;;;;;;;;;;;;;14.44;53.48;102675.06;1017715;29;1576;-62
2022/01/30 09:26:46;;;;;;;;;;;;;;;14.44;53.08;102669.69;1016931;29;1359;-61
2022/01/30 09:27:35;;;;;;;;;;;;;;;14.43;52.93;102670.66;1016486;29;1569;-61
2022/01/30 09:28:24;;;;;;;;;;;;;;;14.43;53.43;102676.88;1016952;29;1399;-62
2022/01/30 09:29:12;;;;;;;;;;;;;;;14.44;53.49;102672.38;1018233;29;872;-61
2022/01/30 09:30:01;;;;;;;;;;;;;;;14.44;53.36;102681.31;1017775;29;1898;-61
2022/01/30 09:30:50;;;;;;;;;;;;;;;14.43;53.45;102679.56;1017963;29;733;-61
2022/01/30 09:31:38;;;;;;;;;;;;;;;14.43;53.03;102676.00;1018128;29;751;-60
2022/01/30 09:32:27;;;;;;;;;;;;;;;14.40;53.10;102670.75;1018177;29;854;-60
2022/01/30 09:33:16;;;;;;;;;;;;;;;14.40;53.08;102682.41;1017693;29;1178;-61
2022/01/30 09:34:05;;;;;;;;;;;;;;;14.41;53.05;102677.91;1017830;29;776;-61
2022/01/30 09:34:53;;;;;;;;;;;;;;;14.42;53.61;102685.00;1017866;29;670;-61
2022/01/30 09:35:42;;;;;;;;;;;;;;;14.40;53.01;102681.50;1017826;29;896;-61
2022/01/30 09:36:30;;;;;;;;;;;;;;;14.40;52.58;102682.41;1018187;29;626;-61
2022/01/30 09:37:20;;;;;;;;;;;;;;;14.41;53.30;102678.78;1017815;29;801;-61
2022/01/30 09:38:08;;;;;;;;;;;;;;;14.41;53.15;102672.53;1017251;29;2064;-61
2022/01/30 09:38:57;;;;;;;;;;;;;;;14.41;53.41;102680.59;1017904;29;705;-61
2022/01/30 09:39:46;;;;;;;;;;;;;;;14.42;52.82;102682.31;1015104;29;1845;-61
2022/01/30 09:40:35;;;;;;;;;;;;;;;14.41;53.05;102688.63;1014237;29;607;-61
2022/01/30 09:41:23;;;;;;;;;;;;;;;14.42;53.23;102691.25;1014346;29;807;-62
2022/01/30 09:42:12;;;;;;;;;;;;;;;14.43;53.13;102692.09;1014008;29;727;-60
2022/01/30 09:43:01;;;;;;;;;;;;;;;14.43;52.95;102697.47;1014287;29;668;-61
2022/01/30 09:43:50;;;;;;;;;;;;;;;14.42;53.25;102696.59;1016051;29;1435;-61
2022/01/30 09:44:39;;;;;;;;;;;;;;;14.46;57.15;102692.81;1018035;29;1758;-60
2022/01/30 09:45:28;;;;;;;;;;;;;;;14.51;58.64;102698.78;1015801;29;1585;-61
2022/01/30 09:46:17;;;;;;;;;;;;;;;14.56;58.79;102695.88;1016859;29;1498;-61
2022/01/30 09:47:06;;;;;;;;;;;;;;;14.60;58.52;102702.81;1018144;29;746;-61
2022/01/30 09:47:55;;;;;;;;;;;;;;;14.64;59.50;102701.72;1018067;29;951;-62
2022/01/30 09:48:44;;;;;;;;;;;;;;;14.64;59.36;102701.72;1018029;29;456;-60
2022/01/30 09:49:32;;;;;;;;;;;;;;;14.65;60.00;102702.59;1017912;29;1589;-61
2022/01/30 09:50:21;;;;;;;;;;;;;;;14.66;60.04;102710.56;1017916;29;1767;-62
2022/01/30 09:51:10;;;;;;;;;;;;;;;14.65;59.60;102708.84;1018081;29;783;-61
2022/01/30 09:51:59;;;;;;;;;;;;;;;14.64;60.24;102707.09;1018120;29;938;-61
2022/01/30 09:52:48;;;;;;;;;;;;;;;14.62;59.72;102711.66;1016944;29;1504;-62
2022/01/30 09:53:38;;;;;;;;;;;;;;;14.60;59.68;102716.25;1018183;29;669;-61
2022/01/30 09:54:27;;;;;;;;;;;;;;;14.58;59.18;102712.75;1017406;29;1551;-60
2022/01/30 09:55:16;;;;;;;;;;;;;;;14.58;59.06;102712.75;1018192;29;710;-62
2022/01/30 09:56:06;;;;;;;;;;;;;;;14.57;59.57;102721.75;1017914;29;870;-61
2022/01/30 09:56:57;;;;;;;;;;;;;;;14.54;59.34;102712.06;1018004;29;837;-61
2022/01/30 09:57:48;;;;;;;;;;;;;;;14.53;59.37;102718.38;1018405;29;743;-60
2022/01/30 09:58:38;;;;;;;;;;;;;;;14.52;58.88;102726.50;1018482;29;846;-62
2022/01/30 09:59:29;;;;;;;;;;;;;;;14.52;59.40;102726.50;1018450;29;1709;-61
2022/01/30 10:00:19;;;;;;;;;;;;;;;14.50;59.10;102725.72;1017835;29;759;-60
2022/01/30 10:01:10;;;;;;;;;;;;;;;14.50;58.74;102717.69;1017346;29;751;-61
2022/01/30 10:02:00;;;;;;;;;;;;;;;14.49;58.75;102724.00;1017807;29;674;-60
2022/01/30 10:02:51;;;;;;;;;;;;;;;14.48;58.44;102730.31;1018535;29;773;-61
2022/01/30 10:03:41;;;;;;;;;;;;;;;14.48;59.17;102732.97;1017550;29;784;-60
2022/01/30 10:04:32;;;;;;;;;;;;;;;14.49;58.49;102727.53;1017053;29;1593;-61
2022/01/30 10:05:22;;;;;;;;;;;;;;;14.50;58.22;102731.09;1017957;29;774;-61
2022/01/30 10:06:18;;;;;;;;;;;;;;;14.53;58.94;102731.78;1017900;29;918;-59
2022/01/30 10:07:14;;;;;;;;;;;;;;;14.53;58.46;102731.78;1014596;29;709;-61
2022/01/30 10:08:05;;;;;;;;;;;;;;;14.53;58.16;102730.91;1014483;29;740;-61
2022/01/30 10:08:57;;;;;;;;;;;;;;;14.52;58.51;102726.50;1013502;29;738;-60
2022/01/30 10:09:50;;;;;;;;;;;;;;;14.52;57.98;102730.03;1013531;29;1896;-61
2022/01/30 10:10:43;;;;;;;;;;;;;;;14.53;58.22;102733.59;1013397;29;928;-59
2022/01/30 10:11:37;;;;;;;;;;;;;;;14.53;58.70;102733.59;1014036;29;713;-62
2022/01/30 10:12:28;;;;;;;;;;;;;;;14.55;58.82;102729.03;1017290;29;675;-60
2022/01/30 10:13:19;;;;;;;;;;;;;;;14.56;58.46;102738.81;1017052;29;773;-65
2022/01/30 10:14:10;;;;;;;;;;;;;;;14.58;58.33;102734.22;1014271;29;1619;-66
2022/01/30 10:15:01;;;;;;;;;;;;;;;14.59;58.30;102731.47;1017961;29;863;-64
2022/01/30 10:15:51;;;;;;;;;;;;;;;14.61;58.07;102730.53;1017914;29;654;-64
2022/01/30 10:16:42;;;;;;;;;;;;;;;14.62;58.22;102734.94;1017885;29;758;-66
2022/01/30 10:17:33;;;;;;;;;;;;;;;14.61;58.28;102733.22;1017871;29;635;-65
2022/01/30 10:18:23;;;;;;;;;;;;;;;14.62;58.32;102729.59;1017806;29;937;-64
2022/01/30 10:19:17;;;;;;;;;;;;;;;14.62;57.76;102730.44;1016588;29;1729;-66
2022/01/30 10:20:07;;;;;;;;;;;;;;;14.63;58.19;102732.19;1017760;29;658;-65
2022/01/30 10:20:58;;;;;;;;;;;;;;;14.65;57.39;102737.47;1017628;29;752;-65
2022/01/30 10:21:48;;;;;;;;;;;;;;;14.63;57.71;102731.31;1017258;29;661;-66
2022/01/30 10:22:39;;;;;;;;;;;;;;;14.63;57.24;102732.19;1017560;29;634;-64
2022/01/30 10:23:29;;;;;;;;;;;;;;;14.63;57.14;102731.31;1018400;29;844;-64
2022/01/30 10:24:19;;;;;;;;;;;;;;;14.62;57.67;102738.50;1017388;29;1025;-66
2022/01/30 10:25:10;;;;;;;;;;;;;;;14.61;56.90;102734.09;1017230;29;741;-66
2022/01/30 10:26:01;;;;;;;;;;;;;;;14.58;57.74;102736.91;1018103;29;702;-65
2022/01/30 10:26:52;;;;;;;;;;;;;;;14.61;57.32;102743.94;1016376;29;730;-66
2022/01/30 10:27:42;;;;;;;;;;;;;;;14.60;57.08;102737.72;1016864;29;737;-67
2022/01/30 10:28:33;;;;;;;;;;;;;;;14.57;57.09;102748.59;1017364;29;701;-68
2022/01/30 10:29:23;;;;;;;;;;;;;;;14.56;57.07;102741.50;1016890;29;1660;-66
2022/01/30 10:30:13;;;;;;;;;;;;;;;14.57;56.88;102743.22;1017304;29;713;-67
2022/01/30 10:31:04;;;;;;;;;;;;;;;14.56;56.52;102747.72;1018147;29;1845;-65
2022/01/30 10:31:54;;;;;;;;;;;;;;;14.56;56.39;102746.84;1017502;29;1515;-66
2022/01/30 10:32:45;;;;;;;;;;;;;;;14.55;57.19;102743.31;1016199;29;1321;-68
2022/01/30 10:33:35;;;;;;;;;;;;;;;14.56;56.83;102741.50;1006911;29;1483;-68
2022/01/30 10:34:33;;;;;;;;;;;;;;;14.57;56.37;102744.09;1013691;29;1551;-68
2022/01/30 10:35:23;;;;;;;;;;;;;;;14.59;56.69;102746.69;1017803;29;815;-66
2022/01/30 10:36:15;;;;;;;;;;;;;;;14.56;56.76;102739.69;1014981;29;1311;-69
2022/01/30 10:37:06;;;;;;;;;;;;;;;14.57;56.17;102743.22;1017018;29;1573;-63
2022/01/30 10:37:57;;;;;;;;;;;;;;;14.59;56.84;102735.97;1013721;29;800;-66
2022/01/30 10:38:52;;;;;;;;;;;;;;;14.60;56.67;102740.38;1015421;29;1711;-66
2022/01/30 10:39:42;;;;;;;;;;;;;;;14.61;56.76;102733.22;1018173;29;668;-65
2022/01/30 10:40:37;;;;;;;;;;;;;;;14.63;56.47;102740.25;1017287;29;1568;-64
2022/01/30 10:41:31;;;;;;;;;;;;;;;14.62;56.58;102741.19;1015254;29;1505;-67
2022/01/30 10:42:25;;;;;;;;;;;;;;;14.61;56.56;102735.91;1015565;29;1470;-70
2022/01/30 10:43:15;;;;;;;;;;;;;;;14.61;56.26;102736.75;1016265;29;1528;-67
2022/01/30 10:44:09;;;;;;;;;;;;;;;14.62;56.46;102733.13;1012552;29;1552;-69
2022/01/30 10:46:10;;;;;;;;;;;;;;;14.62;56.71;102735.81;1016606;29;1470;-66
2022/01/30 10:47:00;;;;;;;;;;;;;;;14.62;56.32;102735.81;1017519;29;1637;-63
2022/01/30 10:47:51;;;;;;;;;;;;;;;14.61;56.43;102733.22;1017583;29;1322;-66
2022/01/30 10:48:41;;;;;;;;;;;;;;;14.61;56.06;102739.44;1017152;29;1488;-66
2022/01/30 10:49:31;;;;;;;;;;;;;;;14.61;55.83;102735.91;1017643;29;1575;-66
2022/01/30 10:50:22;;;;;;;;;;;;;;;14.59;56.14;102730.59;1017086;29;1929;-66
2022/01/30 10:51:12;;;;;;;;;;;;;;;14.58;55.97;102732.41;1017528;29;1463;-64
2022/01/30 10:52:03;;;;;;;;;;;;;;;14.60;55.90;102732.34;1017754;29;1329;-68
2022/01/30 10:52:53;;;;;;;;;;;;;;;14.62;55.54;102735.81;1016082;29;1421;-64
2022/01/30 10:53:46;;;;;;;;;;;;;;;14.62;55.41;102737.63;1016414;29;1592;-67
2022/01/30 10:54:36;;;;;;;;;;;;;;;14.62;55.45;102741.19;1016431;29;1200;-67
2022/01/30 10:55:27;;;;;;;;;;;;;;;14.59;55.32;102730.59;1017719;29;768;-66
2022/01/30 10:56:17;;;;;;;;;;;;;;;14.59;55.47;102730.59;1017766;29;666;-67
2022/01/30 10:57:07;;;;;;;;;;;;;;;14.58;55.32;102737.78;1017580;29;1604;-66
2022/01/30 10:57:58;;;;;;;;;;;;;;;14.58;55.34;102728.88;1013840;29;1086;-66
2022/01/30 10:58:48;;;;;;;;;;;;;;;14.57;55.97;102728.00;1013195;29;813;-67
2022/01/30 10:59:43;;;;;;;;;;;;;;;14.56;55.66;102728.94;1013444;29;688;-66
2022/01/30 11:00:33;;;;;;;;;;;;;;;14.54;55.38;102724.59;1013105;29;737;-66
2022/01/30 11:01:23;;;;;;;;;;;;;;;14.53;54.68;102730.91;1014577;29;807;-67
2022/01/30 11:02:14;;;;;;;;;;;;;;;14.54;54.79;102732.66;1016985;29;1361;-67
2022/01/30 11:03:04;;;;;;;;;;;;;;;14.55;55.15;102718.28;1014816;29;1480;-67
2022/01/30 11:04:00;;;;;;;;;;;;;;;14.55;54.88;102723.66;1016457;29;1380;-67
2022/01/30 11:04:50;;;;;;;;;;;;;;;14.56;55.16;102728.94;1017978;29;1519;-67
2022/01/30 11:05:41;;;;;;;;;;;;;;;14.58;54.96;102728.88;1016438;29;1558;-67
2022/01/30 11:06:31;;;;;;;;;;;;;;;14.59;54.33;102725.25;1015602;29;1473;-67
2022/01/30 11:07:22;;;;;;;;;;;;;;;14.61;54.39;102728.72;1016355;29;1523;-67
2022/01/30 11:08:12;;;;;;;;;;;;;;;14.62;54.43;102724.22;1012751;29;934;-67
2022/01/30 11:09:02;;;;;;;;;;;;;;;14.64;54.74;102723.19;1014528;29;764;-67
2022/01/30 11:09:53;;;;;;;;;;;;;;;14.66;54.73;102721.31;1016680;29;1903;-67
2022/01/30 11:10:45;;;;;;;;;;;;;;;14.68;54.10;102724.78;1015939;29;1592;-67
2022/01/30 11:11:43;;;;;;;;;;;;;;;14.68;53.96;102724.78;1015744;29;1587;-66
2022/01/30 11:12:40;;;;;;;;;;;;;;;14.66;54.26;102721.31;1018307;29;1557;-66
2022/01/30 11:13:44;;;;;;;;;;;;;;;14.66;54.09;102723.13;1015089;29;1427;-67
2022/01/30 11:14:40;;;;;;;;;;;;;;;14.64;54.72;102727.69;1017310;29;1666;-67
2022/01/30 11:17:30;;;;;;;;;;;;;;;14.59;54.53;102720.75;1016968;29;1452;-67
2022/01/30 11:18:20;;;;;;;;;;;;;;;14.58;53.74;102723.50;1017267;29;663;-67
2022/01/30 11:19:11;;;;;;;;;;;;;;;14.58;54.04;102734.22;1017022;29;803;-67
2022/01/30 11:20:01;;;;;;;;;;;;;;;14.57;53.58;102727.13;1014755;29;1649;-67
2022/01/30 11:20:52;;;;;;;;;;;;;;;14.58;53.21;102731.53;1017020;29;1581;-67
2022/01/30 11:21:42;;;;;;;;;;;;;;;14.61;52.69;102727.84;1016406;29;1777;-67
2022/01/30 11:22:34;;;;;;;;;;;;;;;14.59;52.83;102725.25;1016572;29;1509;-67
2022/01/30 11:23:24;;;;;;;;;;;;;;;14.58;53.64;102724.38;1016024;29;1477;-67
2022/01/30 11:24:15;;;;;;;;;;;;;;;14.58;53.39;102726.19;1016094;29;1647;-66
2022/01/30 11:25:05;;;;;;;;;;;;;;;14.59;52.66;102727.91;1016555;29;1501;-67
2022/01/30 11:25:56;;;;;;;;;;;;;;;14.58;53.45;102726.19;1016624;29;1465;-67
2022/01/30 11:26:46;;;;;;;;;;;;;;;14.59;53.03;102727.91;1016390;29;1500;-67
2022/01/30 11:27:36;;;;;;;;;;;;;;;14.57;53.58;102721.75;1013757;29;1509;-67
2022/01/30 11:28:27;;;;;;;;;;;;;;;14.57;52.57;102721.75;1015944;29;1517;-67
2022/01/30 11:29:19;;;;;;;;;;;;;;;14.55;53.07;102720.97;1014989;29;1763;-67
2022/01/30 11:30:09;;;;;;;;;;;;;;;14.52;53.40;102723.81;1017066;29;1879;-66
2022/01/30 11:30:59;;;;;;;;;;;;;;;14.51;54.52;102722.09;1017580;29;1571;-66
2022/01/30 11:31:50;;;;;;;;;;;;;;;14.48;52.56;102731.16;1017464;29;1352;-66
2022/01/30 11:32:40;;;;;;;;;;;;;;;14.50;53.17;102725.72;1016673;29;1315;-67
2022/01/30 11:33:31;;;;;;;;;;;;;;;14.50;52.12;102723.03;1016800;29;1541;-67
2022/01/30 11:34:22;;;;;;;;;;;;;;;14.49;52.82;102721.31;1016118;29;1380;-66
2022/01/30 11:35:12;;;;;;;;;;;;;;;14.50;52.60;102720.38;1016810;29;1610;-67
2022/01/30 11:36:03;;;;;;;;;;;;;;;14.49;52.08;102719.50;1015507;29;1497;-68
2022/01/30 11:36:53;;;;;;;;;;;;;;;14.51;52.01;102717.56;1017424;29;1568;-67
2022/01/30 11:37:43;;;;;;;;;;;;;;;14.53;52.20;102714.81;1016198;29;1497;-67
2022/01/30 11:38:35;;;;;;;;;;;;;;;14.57;52.06;102721.75;1017375;29;1566;-67
2022/01/30 11:39:25;;;;;;;;;;;;;;;14.58;52.32;102721.69;1016302;29;1486;-67
2022/01/30 11:40:15;;;;;;;;;;;;;;;14.60;52.82;102716.25;1014652;29;1354;-67
2022/01/30 11:41:06;;;;;;;;;;;;;;;14.61;52.33;102712.63;1016202;29;1599;-67
2022/01/30 11:41:56;;;;;;;;;;;;;;;14.61;52.75;102728.72;1013110;29;1384;-67
2022/01/30 11:42:49;;;;;;;;;;;;;;;14.63;52.58;102718.78;1017039;29;1570;-67
2022/01/30 11:43:39;;;;;;;;;;;;;;;14.63;53.06;102715.22;1015834;29;1502;-67
2022/01/30 11:44:29;;;;;;;;;;;;;;;14.62;52.03;102718.84;1016628;29;1572;-67
2022/01/30 11:45:20;;;;;;;;;;;;;;;14.61;52.44;102717.13;1018643;29;1507;-68
2022/01/30 11:46:10;;;;;;;;;;;;;;;14.61;52.35;102707.25;1016775;29;1392;-67
2022/01/30 11:47:01;;;;;;;;;;;;;;;14.60;52.59;102708.19;1017540;29;1508;-68
2022/01/30 11:47:52;;;;;;;;;;;;;;;14.61;52.17;102714.44;1014458;29;1435;-68
2022/01/30 11:48:42;;;;;;;;;;;;;;;14.60;52.86;102710.88;1016237;29;1590;-68
2022/01/30 11:49:32;;;;;;;;;;;;;;;14.58;52.69;102712.75;1017591;29;729;-68
2022/01/30 11:50:25;;;;;;;;;;;;;;;14.57;52.74;102711.03;1017692;29;717;-68
2022/01/30 11:51:16;;;;;;;;;;;;;;;14.57;52.76;102711.03;1017475;29;796;-67
2022/01/30 11:52:09;;;;;;;;;;;;;;;14.57;52.33;102711.03;1014264;29;891;-67
2022/01/30 11:53:00;;;;;;;;;;;;;;;14.57;52.24;102716.41;1014465;29;1556;-67
2022/01/30 11:53:50;;;;;;;;;;;;;;;14.57;52.48;102716.41;1017254;29;1445;-68
2022/01/30 11:54:40;;;;;;;;;;;;;;;14.55;52.63;102708.44;1016784;29;1591;-68
2022/01/30 11:55:31;;;;;;;;;;;;;;;14.55;53.08;102713.78;1016397;29;1511;-68
2022/01/30 11:56:21;;;;;;;;;;;;;;;14.55;52.82;102712.91;1016528;29;642;-69
2022/01/30 11:57:12;;;;;;;;;;;;;;;14.52;52.99;102708.56;1016928;29;729;-68
2022/01/30 11:58:02;;;;;;;;;;;;;;;14.52;53.58;102710.38;1017105;29;749;-68
2022/01/30 11:58:57;;;;;;;;;;;;;;;14.50;53.51;102715.88;1016923;29;696;-67
2022/01/30 11:59:47;;;;;;;;;;;;;;;14.48;53.04;102719.56;1010545;29;1392;-72
2022/01/30 12:00:38;;;;;;;;;;;;;;;14.47;52.52;102715.16;1015005;29;1443;-67
2022/01/30 12:01:34;;;;;;;;;;;;;;;14.46;53.63;102716.09;1015206;29;1322;-67
2022/01/30 12:02:25;;;;;;;;;;;;;;;14.44;53.12;102715.31;1014928;29;1206;-68
2022/01/30 12:03:15;;;;;;;;;;;;;;;14.44;52.50;102707.25;1019594;29;1567;-68
2022/01/30 12:04:06;;;;;;;;;;;;;;;14.45;52.20;102717.91;1016304;29;1744;-71
2022/01/30 12:04:57;;;;;;;;;;;;;;;14.44;52.64;102716.16;1016152;29;1614;-69
2022/01/30 12:05:47;;;;;;;;;;;;;;;14.46;52.68;102713.41;1018245;29;1488;-68
2022/01/30 12:06:38;;;;;;;;;;;;;;;14.47;52.24;102715.16;1016071;29;1598;-68